Time;durP1;ratioP1;P1;durP2;ratioP2;P2;SDS_P1;SDS_P2;PMS_P1;PMS_P2;Temp;Humidity;BMP_temperature;BMP_pressure;BME280_temperature;BME280_humidity;BME280_pressure;Samples;Min_cycle;Max_cycle;Signal;HPM_P1;HPM_P2
2022/05/09 00:02:16;;;;;;;6.55;1.98;;;19.40;76.90;;;;;;4935559;29;20135;-70
2022/05/09 00:04:42;;;;;;;9.98;2.50;;;19.40;76.80;;;;;;4951366;29;20047;-71
2022/05/09 00:07:08;;;;;;;7.15;2.50;;;19.40;76.70;;;;;;4930189;29;20057;-70
2022/05/09 00:09:34;;;;;;;8.25;2.80;;;19.40;76.80;;;;;;4911635;29;20383;-70
2022/05/09 00:12:00;;;;;;;7.57;2.40;;;19.40;76.70;;;;;;4955325;29;20078;-71
2022/05/09 00:14:25;;;;;;;7.68;2.63;;;19.50;76.80;;;;;;4921047;28;20070;-70
2022/05/09 00:16:52;;;;;;;8.23;2.85;;;19.40;76.80;;;;;;4939822;29;20040;-67
2022/05/09 00:19:20;;;;;;;9.98;3.15;;;;;;;;;;4941149;29;20410;-65
2022/05/09 00:21:46;;;;;;;6.00;2.33;;;19.40;76.80;;;;;;4953603;29;20043;-65
2022/05/09 00:24:14;;;;;;;9.32;2.83;;;19.40;77.00;;;;;;4959334;29;20050;-65
2022/05/09 00:26:43;;;;;;;7.63;2.40;;;19.30;76.70;;;;;;4958655;29;20492;-65
2022/05/09 00:29:10;;;;;;;11.15;2.92;;;19.60;76.80;;;;;;4931279;29;20103;-65
2022/05/09 00:31:36;;;;;;;10.45;2.78;;;19.30;76.70;;;;;;4940679;29;20047;-67
2022/05/09 00:34:02;;;;;;;8.88;2.20;;;19.30;76.70;;;;;;4952849;29;20069;-66
2022/05/09 00:36:28;;;;;;;10.15;2.58;;;19.40;73.90;;;;;;4958473;29;20043;-65
2022/05/09 00:38:54;;;;;;;6.90;2.33;;;;;;;;;;4934276;29;20058;-67
2022/05/09 00:41:34;;;;;;;8.77;3.00;;;19.30;76.70;;;;;;4924147;29;20043;-67
2022/05/09 00:44:29;;;;;;;8.65;2.38;;;19.30;76.70;;;;;;4940374;29;20457;-66
2022/05/09 00:46:56;;;;;;;10.75;2.65;;;;;;;;;;4885791;29;20060;-67
2022/05/09 00:49:34;;;;;;;8.68;2.20;;;19.20;76.70;;;;;;4896804;29;20438;-66
2022/05/09 00:52:04;;;;;;;8.27;2.55;;;19.40;76.90;;;;;;4880054;29;20057;-64
2022/05/09 00:54:49;;;;;;;7.22;2.42;;;19.40;76.70;;;;;;4865220;29;20487;-66
2022/05/09 00:57:36;;;;;;;7.60;2.33;;;19.10;76.50;;;;;;4870969;29;20064;-65
2022/05/09 01:00:08;;;;;;;8.43;2.70;;;19.10;76.60;;;;;;4882094;29;20077;-64
2022/05/09 01:02:35;;;;;;;8.00;2.67;;;19.00;76.40;;;;;;4882474;29;20045;-66
2022/05/09 01:05:00;;;;;;;7.88;2.85;;;19.40;75.90;;;;;;4879237;29;20065;-70
2022/05/09 01:07:26;;;;;;;7.35;2.53;;;19.20;76.70;;;;;;4864738;29;20042;-71
2022/05/09 01:09:52;;;;;;;7.32;2.53;;;19.10;76.60;;;;;;4838724;29;20064;-69
2022/05/09 01:12:20;;;;;;;7.60;2.65;;;18.90;73.20;;;;;;4898993;29;20045;-70
2022/05/09 01:14:46;;;;;;;10.43;2.60;;;19.30;76.70;;;;;;4897707;29;20087;-70
2022/05/09 01:17:11;;;;;;;8.55;2.53;;;19.30;76.70;;;;;;4898974;29;20087;-70
2022/05/09 01:19:40;;;;;;;8.68;2.60;;;19.30;76.70;;;;;;4848691;29;20079;-70
2022/05/09 01:22:21;;;;;;;7.53;2.60;;;19.40;76.70;;;;;;4875968;29;20040;-70
2022/05/09 01:24:47;;;;;;;5.93;2.50;;;;;;;;;;4905156;29;20055;-70
2022/05/09 01:27:13;;;;;;;7.18;2.60;;;19.00;76.50;;;;;;4906037;29;20043;-70
2022/05/09 01:29:39;;;;;;;6.43;2.58;;;;;;;;;;4905506;29;20138;-70
2022/05/09 01:32:07;;;;;;;10.20;2.60;;;19.00;76.60;;;;;;4938738;29;20441;-70
2022/05/09 01:34:33;;;;;;;8.73;2.90;;;;;;;;;;4951642;29;20130;-70
2022/05/09 01:37:03;;;;;;;8.10;2.95;;;19.30;73.50;;;;;;4943903;29;20103;-70
2022/05/09 01:39:31;;;;;;;8.43;2.92;;;;;;;;;;4927196;29;20071;-69
2022/05/09 01:41:56;;;;;;;7.47;2.42;;;18.90;76.50;;;;;;4937185;29;20146;-71
2022/05/09 01:44:23;;;;;;;5.00;2.28;;;19.10;76.70;;;;;;4940274;29;20130;-70
2022/05/09 01:49:34;;;;;;;8.40;2.85;;;19.00;76.50;;;;;;4942048;29;20067;-70
2022/05/09 01:52:03;;;;;;;6.32;2.35;;;19.30;73.80;;;;;;4908698;29;20087;-70
2022/05/09 01:54:29;;;;;;;7.97;2.35;;;19.10;76.50;;;;;;4935205;29;20039;-70
2022/05/09 01:56:55;;;;;;;5.60;2.30;;;19.00;73.50;;;;;;4889801;29;20405;-70
2022/05/09 01:59:20;;;;;;;4.45;2.15;;;19.00;76.30;;;;;;4913697;29;20118;-70
2022/05/09 02:01:46;;;;;;;4.65;2.28;;;;;;;;;;4939835;29;20047;-70
2022/05/09 02:04:12;;;;;;;5.75;2.08;;;18.90;73.00;;;;;;4957004;29;20047;-70
2022/05/09 02:06:39;;;;;;;4.65;1.88;;;19.00;76.30;;;;;;4906394;29;20052;-69
2022/05/09 02:09:05;;;;;;;5.10;1.90;;;;;;;;;;4953072;29;20405;-69
2022/05/09 02:11:31;;;;;;;4.90;2.10;;;;;;;;;;4938384;29;20047;-70
2022/05/09 02:13:57;;;;;;;4.20;1.60;;;;;;;;;;4936615;29;20075;-70
2022/05/09 02:16:23;;;;;;;5.30;2.00;;;;;;;;;;4939572;29;20130;-70
2022/05/09 02:18:49;;;;;;;5.03;1.92;;;;;;;;;;4955551;29;20052;-66
2022/05/09 02:21:15;;;;;;;6.80;2.13;;;18.90;76.20;;;;;;4939247;29;20051;-65
2022/05/09 02:23:42;;;;;;;6.25;2.33;;;;;;;;;;4937753;29;20397;-65
2022/05/09 02:26:08;;;;;;;4.57;2.05;;;18.80;71.30;;;;;;4954885;29;20047;-65
2022/05/09 02:28:34;;;;;;;5.45;2.10;;;18.80;76.00;;;;;;4953122;29;20043;-65
2022/05/09 02:31:00;;;;;;;4.93;2.00;;;18.90;76.00;;;;;;4938660;29;20378;-65
2022/05/09 02:33:25;;;;;;;5.15;2.08;;;18.80;76.00;;;;;;4938323;29;20035;-66
2022/05/09 02:35:51;;;;;;;5.97;1.95;;;18.60;75.80;;;;;;4937793;29;20052;-65
2022/05/09 02:38:17;;;;;;;6.30;2.33;;;;;;;;;;4937000;29;20095;-65
2022/05/09 02:40:43;;;;;;;2.67;1.60;;;18.70;75.80;;;;;;4943785;29;20056;-65
2022/05/09 02:43:09;;;;;;;4.03;1.90;;;18.90;76.00;;;;;;4920459;29;20556;-65
2022/05/09 02:45:34;;;;;;;5.30;2.13;;;18.70;75.90;;;;;;4937963;29;20568;-65
2022/05/09 02:48:00;;;;;;;5.95;2.38;;;18.90;76.00;;;;;;4912172;29;20464;-66
2022/05/09 02:50:26;;;;;;;6.75;2.92;;;18.80;76.00;;;;;;4919924;29;20524;-66
2022/05/09 02:52:52;;;;;;;5.07;2.60;;;18.90;75.90;;;;;;4905072;29;20062;-64
2022/05/09 02:55:19;;;;;;;6.60;2.50;;;;;;;;;;4920220;29;20398;-65
2022/05/09 02:57:44;;;;;;;5.15;2.25;;;18.70;75.90;;;;;;4936882;29;20051;-66
2022/05/09 03:00:24;;;;;;;6.65;2.33;;;18.60;75.60;;;;;;4903845;29;20055;-67
2022/05/09 03:05:34;;;;;;;6.68;2.90;;;18.60;75.80;;;;;;4928312;29;20130;-65
2022/05/09 03:08:00;;;;;;;6.00;2.63;;;18.90;75.90;;;;;;4920714;29;20155;-66
2022/05/09 03:10:28;;;;;;;7.13;3.30;;;18.70;75.90;;;;;;4930276;29;20509;-65
2022/05/09 03:13:00;;;;;;;6.13;2.65;;;18.60;75.70;;;;;;4935156;29;20497;-69
2022/05/09 03:15:29;;;;;;;5.60;2.63;;;18.80;75.90;;;;;;4938884;29;20043;-69
2022/05/09 03:17:55;;;;;;;5.97;2.83;;;18.70;75.90;;;;;;4956017;29;20118;-69
2022/05/09 03:20:22;;;;;;;8.95;2.83;;;18.30;75.60;;;;;;4930359;29;20146;-70
2022/05/09 03:22:48;;;;;;;6.38;2.95;;;;;;;;;;4928424;29;20060;-69
2022/05/09 03:25:14;;;;;;;4.45;2.08;;;;;;;;;;4902962;29;20063;-69
2022/05/09 03:27:40;;;;;;;3.75;1.83;;;18.80;75.90;;;;;;4903494;29;20106;-69
2022/05/09 03:30:07;;;;;;;4.72;2.08;;;18.50;75.70;;;;;;4936815;29;20047;-70
2022/05/09 03:32:34;;;;;;;4.03;1.80;;;18.50;75.60;;;;;;4936280;29;20051;-65
2022/05/09 03:35:00;;;;;;;4.40;1.80;;;18.60;75.80;;;;;;4938362;29;20044;-65
2022/05/09 03:37:25;;;;;;;4.00;1.90;;;18.60;72.90;;;;;;4909614;29;20568;-65
2022/05/09 03:39:51;;;;;;;5.85;2.10;;;18.60;75.90;;;;;;4936752;29;20055;-65
2022/05/09 03:42:17;;;;;;;6.25;2.28;;;;;;;;;;4934912;29;20052;-64
2022/05/09 03:44:43;;;;;;;6.53;2.45;;;18.70;76.10;;;;;;4925670;29;20494;-65
2022/05/09 03:47:08;;;;;;;4.97;2.42;;;18.70;76.00;;;;;;4917442;29;20054;-65
2022/05/09 03:49:34;;;;;;;6.57;2.47;;;18.50;75.90;;;;;;4915369;29;20415;-64
2022/05/09 03:52:00;;;;;;;4.25;2.13;;;18.50;76.00;;;;;;4917187;29;20422;-65
2022/05/09 03:54:25;;;;;;;3.65;1.75;;;18.60;72.60;;;;;;4918653;29;20523;-65
2022/05/09 03:56:51;;;;;;;5.63;1.88;;;18.30;75.90;;;;;;4930714;29;20098;-65
2022/05/09 03:59:17;;;;;;;6.28;2.53;;;18.60;76.00;;;;;;4936335;29;20051;-64
2022/05/09 04:01:43;;;;;;;4.22;2.00;;;18.30;75.90;;;;;;4936401;29;20051;-66
2022/05/09 04:04:09;;;;;;;4.35;2.00;;;;;;;;;;4936001;29;20047;-65
2022/05/09 04:06:35;;;;;;;6.22;2.50;;;18.30;75.90;;;;;;4920718;29;20044;-65
2022/05/09 04:09:00;;;;;;;6.15;2.38;;;18.60;73.20;;;;;;4915949;29;20048;-65
2022/05/09 04:11:26;;;;;;;5.00;1.90;;;18.40;75.80;;;;;;4926023;29;20087;-65
2022/05/09 04:13:52;;;;;;;4.55;1.95;;;18.50;76.10;;;;;;4934966;29;20047;-65
2022/05/09 04:19:02;;;;;;;3.80;1.85;;;;;;;;;;4915377;29;20056;-65
2022/05/09 04:21:28;;;;;;;5.40;2.25;;;;;;;;;;4901099;29;20059;-67
2022/05/09 04:23:56;;;;;;;4.65;2.05;;;18.50;75.20;;;;;;4934840;29;20450;-69
2022/05/09 04:26:23;;;;;;;3.42;1.80;;;18.50;73.00;;;;;;4932306;29;20051;-69
2022/05/09 04:28:49;;;;;;;5.15;2.40;;;18.60;76.40;;;;;;4911779;29;20521;-69
2022/05/09 04:31:15;;;;;;;5.13;2.30;;;;;;;;;;4886037;29;20127;-69
2022/05/09 04:33:42;;;;;;;5.88;2.40;;;18.60;76.50;;;;;;4916410;29;20478;-69
2022/05/09 04:36:07;;;;;;;7.38;2.63;;;18.70;76.40;;;;;;4899663;29;20051;-70
2022/05/09 04:38:34;;;;;;;5.68;2.30;;;18.50;76.30;;;;;;4916445;29;20075;-70
2022/05/09 04:41:02;;;;;;;7.88;2.70;;;;;;;;;;4935147;29;20063;-69
2022/05/09 04:43:30;;;;;;;4.28;2.03;;;;;;;;;;4937376;29;20047;-69
2022/05/09 04:45:58;;;;;;;4.38;2.45;;;18.60;73.10;;;;;;4928666;28;20048;-70
2022/05/09 04:48:24;;;;;;;6.30;3.00;;;18.60;76.30;;;;;;4915863;29;20119;-70
2022/05/09 04:50:50;;;;;;;6.90;2.95;;;18.70;76.30;;;;;;4915979;29;20142;-70
2022/05/09 04:53:16;;;;;;;6.70;2.70;;;18.40;76.20;;;;;;4924083;29;20178;-69
2022/05/09 04:55:43;;;;;;;8.65;2.95;;;;;;;;;;4954553;28;20117;-69
2022/05/09 04:58:14;;;;;;;4.97;2.42;;;19.00;76.30;;;;;;4946363;29;20044;-70
2022/05/09 05:00:40;;;;;;;6.35;2.75;;;19.00;76.20;;;;;;4929926;29;20043;-69
2022/05/09 05:03:05;;;;;;;6.70;2.80;;;18.80;76.10;;;;;;4923129;29;20052;-69
2022/05/09 05:05:31;;;;;;;6.47;2.85;;;19.00;76.10;;;;;;4934703;29;20059;-69
2022/05/09 05:07:57;;;;;;;6.78;2.95;;;19.50;76.20;;;;;;4938560;29;20083;-69
2022/05/09 05:10:24;;;;;;;9.25;3.25;;;19.10;75.80;;;;;;4926210;29;20494;-69
2022/05/09 05:12:50;;;;;;;6.57;2.95;;;19.50;75.80;;;;;;4925758;29;20047;-70
2022/05/09 05:15:16;;;;;;;7.32;2.55;;;;;;;;;;4918895;29;20165;-68
2022/05/09 05:17:42;;;;;;;6.68;2.92;;;;;;;;;;4932993;29;20413;-65
2022/05/09 05:20:12;;;;;;;6.35;3.05;;;20.20;75.30;;;;;;4924049;29;20055;-65
2022/05/09 05:22:38;;;;;;;9.20;2.90;;;20.20;75.00;;;;;;4919166;29;20402;-65
2022/05/09 05:25:05;;;;;;;6.82;2.88;;;20.20;74.70;;;;;;4918275;29;20134;-66
2022/05/09 05:27:31;;;;;;;9.57;3.05;;;20.50;74.70;;;;;;4918060;29;20054;-66
2022/05/09 05:29:58;;;;;;;7.85;2.85;;;20.60;74.30;;;;;;4918206;29;20064;-66
2022/05/09 05:32:25;;;;;;;7.55;2.88;;;20.70;73.50;;;;;;4919157;29;20048;-66
2022/05/09 05:34:51;;;;;;;8.52;2.70;;;21.00;74.00;;;;;;4917621;29;20056;-65
2022/05/09 05:37:17;;;;;;;5.60;2.47;;;20.90;73.60;;;;;;4918407;29;20078;-66
2022/05/09 05:39:46;;;;;;;7.68;2.75;;;21.10;73.60;;;;;;4919107;29;20056;-66
2022/05/09 05:42:14;;;;;;;6.82;2.97;;;;;;;;;;4902182;29;20060;-66
2022/05/09 05:44:40;;;;;;;7.72;2.85;;;21.20;73.30;;;;;;4919282;29;20059;-70
2022/05/09 05:47:07;;;;;;;7.28;2.47;;;21.10;73.10;;;;;;4919148;29;20414;-69
2022/05/09 05:49:34;;;;;;;6.95;2.65;;;21.20;72.90;;;;;;4918945;29;20131;-69
2022/05/09 05:52:03;;;;;;;6.68;2.55;;;21.40;72.90;;;;;;4918336;29;20055;-69
2022/05/09 05:54:34;;;;;;;7.05;2.65;;;21.50;70.30;;;;;;4919698;29;20055;-70
2022/05/09 05:57:01;;;;;;;5.43;2.65;;;21.70;72.80;;;;;;4918704;29;20160;-69
2022/05/09 05:59:27;;;;;;;8.80;2.75;;;21.40;72.10;;;;;;4917701;29;20055;-70
2022/05/09 06:01:53;;;;;;;7.22;2.95;;;21.90;68.70;;;;;;4934148;29;20063;-69
2022/05/09 06:04:19;;;;;;;7.05;2.75;;;21.80;72.40;;;;;;4936688;29;20050;-69
2022/05/09 06:06:46;;;;;;;7.25;2.83;;;;;;;;;;4937561;29;20043;-69
2022/05/09 06:09:12;;;;;;;8.73;3.13;;;22.10;72.40;;;;;;4936557;29;20050;-70
2022/05/09 06:11:39;;;;;;;8.50;2.60;;;22.10;68.70;;;;;;4917830;29;20075;-69
2022/05/09 06:14:14;;;;;;;7.78;2.90;;;22.30;72.40;;;;;;4916891;29;20050;-69
2022/05/09 06:16:40;;;;;;;6.47;2.45;;;22.30;72.30;;;;;;4918446;29;20482;-69
2022/05/09 06:19:08;;;;;;;6.25;2.90;;;22.20;72.20;;;;;;4917492;29;20058;-69
2022/05/09 06:21:34;;;;;;;7.30;2.80;;;;;;;;;;4918458;29;20401;-69
2022/05/09 06:24:02;;;;;;;8.55;2.60;;;22.30;72.00;;;;;;4918413;29;20398;-70
2022/05/09 06:26:28;;;;;;;6.63;2.67;;;;;;;;;;4919152;29;20040;-68
2022/05/09 06:28:54;;;;;;;7.95;2.88;;;;;;;;;;4935994;29;20131;-69
2022/05/09 06:31:21;;;;;;;9.15;2.90;;;;;;;;;;4935698;29;20044;-70
2022/05/09 06:33:47;;;;;;;6.78;2.50;;;;;;;;;;4920211;29;20055;-69
2022/05/09 06:36:13;;;;;;;6.18;2.80;;;22.60;67.20;;;;;;4936142;29;20055;-69
2022/05/09 06:38:39;;;;;;;7.82;2.92;;;22.90;71.80;;;;;;4935637;29;20473;-69
2022/05/09 06:41:07;;;;;;;8.73;2.80;;;;;;;;;;4935459;29;20056;-68
2022/05/09 06:43:33;;;;;;;9.23;2.88;;;22.60;71.30;;;;;;4936512;29;20469;-69
2022/05/09 06:45:59;;;;;;;8.85;2.85;;;22.70;71.30;;;;;;4919933;29;20086;-69
2022/05/09 06:48:25;;;;;;;9.55;3.47;;;22.90;71.40;;;;;;4935451;29;20110;-70
2022/05/09 06:50:51;;;;;;;8.68;3.03;;;;;;;;;;4935219;29;20055;-69
2022/05/09 06:53:17;;;;;;;7.32;2.88;;;22.90;71.20;;;;;;4936475;29;20059;-70
2022/05/09 06:55:43;;;;;;;7.47;3.20;;;23.00;71.20;;;;;;4937021;29;20509;-69
2022/05/09 06:58:10;;;;;;;9.45;3.20;;;22.90;71.10;;;;;;4935356;29;20486;-69
2022/05/09 07:00:36;;;;;;;10.93;3.40;;;23.10;71.10;;;;;;4928704;29;20389;-69
2022/05/09 07:03:02;;;;;;;8.40;3.15;;;23.00;70.90;;;;;;4915992;29;20055;-70
2022/05/09 07:05:28;;;;;;;8.93;3.10;;;23.20;70.90;;;;;;4917486;29;20051;-69
2022/05/09 07:07:53;;;;;;;7.95;3.58;;;23.20;68.30;;;;;;4917854;29;20421;-71
2022/05/09 07:10:19;;;;;;;8.68;2.95;;;23.40;71.00;;;;;;4917284;29;20177;-68
2022/05/09 07:12:53;;;;;;;13.52;3.55;;;23.10;70.70;;;;;;4917305;29;20048;-69
2022/05/09 07:15:21;;;;;;;9.52;3.65;;;23.20;70.70;;;;;;4917521;29;20543;-69
2022/05/09 07:17:47;;;;;;;7.32;2.83;;;;;;;;;;4919451;29;20063;-70
2022/05/09 07:20:15;;;;;;;7.88;3.15;;;23.30;70.70;;;;;;4936332;29;20401;-69
2022/05/09 07:22:40;;;;;;;11.13;3.47;;;23.50;70.90;;;;;;4935967;29;20046;-71
2022/05/09 07:25:08;;;;;;;6.60;2.90;;;23.20;68.80;;;;;;4935173;29;20055;-73
2022/05/09 07:27:34;;;;;;;10.40;3.85;;;23.10;70.40;;;;;;4935232;29;20050;-72
2022/05/09 07:29:59;;;;;;;7.72;3.38;;;23.50;70.30;;;;;;4936202;29;20055;-72
2022/05/09 07:32:25;;;;;;;8.80;4.07;;;23.20;70.30;;;;;;4936159;29;20476;-70
2022/05/09 07:34:51;;;;;;;8.73;3.88;;;23.40;70.40;;;;;;4935263;29;20080;-71
2022/05/09 07:37:18;;;;;;;11.15;3.67;;;23.30;70.20;;;;;;4935981;29;20135;-71
2022/05/09 07:39:44;;;;;;;12.25;4.13;;;23.40;67.70;;;;;;4938098;29;20063;-71
2022/05/09 07:42:11;;;;;;;12.95;3.95;;;23.50;67.30;;;;;;4937838;29;20609;-71
2022/05/09 07:44:37;;;;;;;9.98;4.15;;;23.50;67.70;;;;;;4937950;29;20125;-71
2022/05/09 07:47:03;;;;;;;7.50;3.45;;;23.50;70.20;;;;;;4955035;29;20046;-70
2022/05/09 07:49:29;;;;;;;8.90;3.72;;;23.30;70.00;;;;;;4955197;29;20139;-72
2022/05/09 07:51:55;;;;;;;8.60;3.58;;;23.50;70.20;;;;;;4932569;29;20406;-70
2022/05/09 07:54:21;;;;;;;11.88;3.55;;;23.40;70.20;;;;;;4918997;29;20489;-72
2022/05/09 07:56:47;;;;;;;7.93;3.45;;;23.50;70.30;;;;;;4918920;29;20051;-72
2022/05/09 07:59:13;;;;;;;10.80;3.70;;;23.50;70.40;;;;;;4935593;29;20062;-73
2022/05/09 08:01:39;;;;;;;8.65;3.53;;;23.50;70.30;;;;;;4935598;29;20044;-72
2022/05/09 08:04:05;;;;;;;7.53;3.42;;;23.60;70.30;;;;;;4918653;29;20047;-73
2022/05/09 08:06:30;;;;;;;9.75;3.20;;;23.60;70.30;;;;;;4918923;29;20098;-73
2022/05/09 08:08:56;;;;;;;10.40;2.90;;;23.70;70.50;;;;;;4940456;29;20515;-71
2022/05/09 08:11:23;;;;;;;8.10;3.10;;;23.50;67.60;;;;;;4954960;29;20045;-72
2022/05/09 08:13:49;;;;;;;7.10;2.67;;;;;;;;;;4954904;29;20464;-72
2022/05/09 08:16:15;;;;;;;7.68;3.08;;;23.60;70.40;;;;;;4937706;29;20039;-70
2022/05/09 08:18:41;;;;;;;6.32;2.80;;;23.90;67.70;;;;;;4954808;29;20130;-71
2022/05/09 08:21:07;;;;;;;6.43;2.60;;;23.90;70.50;;;;;;4921419;29;20102;-71
2022/05/09 08:23:32;;;;;;;6.13;2.67;;;23.80;70.60;;;;;;4937695;29;20054;-72
2022/05/09 08:26:00;;;;;;;7.40;2.70;;;24.00;70.60;;;;;;4953766;29;20106;-71
2022/05/09 08:28:26;;;;;;;8.88;3.00;;;24.00;70.90;;;;;;4937733;29;20058;-66
2022/05/09 08:30:55;;;;;;;6.75;2.70;;;23.90;68.50;;;;;;4937682;29;20060;-66
2022/05/09 08:33:23;;;;;;;7.78;2.90;;;24.00;70.90;;;;;;4954567;29;20105;-66
2022/05/09 08:35:53;;;;;;;7.32;3.00;;;24.10;70.70;;;;;;4955316;28;20051;-65
2022/05/09 08:38:19;;;;;;;7.18;2.53;;;24.00;70.80;;;;;;4958288;29;20044;-66
2022/05/09 08:41:05;;;;;;;6.43;2.55;;;24.10;70.80;;;;;;4941086;29;20098;-67
2022/05/09 08:43:55;;;;;;;5.65;2.25;;;24.00;70.70;;;;;;4940242;29;20130;-66
2022/05/09 08:46:59;;;;;;;6.97;2.45;;;24.10;68.70;;;;;;4925513;29;20146;-66
2022/05/09 08:49:43;;;;;;;8.75;2.65;;;24.30;67.20;;;;;;4958173;29;20051;-66
2022/05/09 08:52:37;;;;;;;6.97;2.58;;;24.20;71.00;;;;;;4925211;29;20051;-66
2022/05/09 08:55:03;;;;;;;6.22;2.20;;;24.30;71.20;;;;;;4955356;29;20066;-66
2022/05/09 08:57:34;;;;;;;5.53;2.35;;;24.10;71.10;;;;;;4925486;29;20059;-66
2022/05/09 09:00:10;;;;;;;6.82;2.67;;;23.90;70.30;;;;;;4940275;28;20052;-65
2022/05/09 09:02:44;;;;;;;8.27;3.05;;;24.20;70.40;;;;;;4960221;28;20513;-66
2022/05/09 09:05:15;;;;;;;9.93;3.55;;;23.80;69.80;;;;;;4959589;28;20055;-66
2022/05/09 09:08:07;;;;;;;14.27;4.72;;;24.10;69.20;;;;;;4943961;28;20062;-65
2022/05/09 09:10:36;;;;;;;8.98;4.20;;;24.00;69.40;;;;;;4898485;29;20139;-66
2022/05/09 09:13:29;;;;;;;9.85;3.75;;;24.00;65.30;;;;;;4883066;29;20079;-66
2022/05/09 09:16:12;;;;;;;10.15;4.20;;;23.70;68.80;;;;;;4882981;29;20124;-65
2022/05/09 09:18:44;;;;;;;;;;;23.80;65.10;;;;;;4849774;29;20113;-64
2022/05/09 09:21:45;;;;;;;9.60;4.03;;;23.90;69.20;;;;;;4879585;29;20024;-65
2022/05/09 09:24:11;;;;;;;8.00;3.63;;;;;;;;;;4863154;29;20060;-70
2022/05/09 09:26:46;;;;;;;9.80;3.90;;;23.60;68.40;;;;;;4898231;29;20052;-72
2022/05/09 09:29:20;;;;;;;10.82;5.13;;;23.70;64.90;;;;;;4882543;29;20065;-72
2022/05/09 09:31:48;;;;;;;16.33;4.70;;;23.70;68.50;;;;;;4867234;29;20514;-71
2022/05/09 09:34:21;;;;;;;14.48;4.35;;;23.60;66.00;;;;;;4859034;29;20061;-72
2022/05/09 09:36:53;;;;;;;17.10;4.68;;;23.60;68.20;;;;;;4848888;29;20075;-65
2022/05/09 09:39:19;;;;;;;10.53;4.30;;;23.50;68.00;;;;;;4833785;29;20065;-64
2022/05/09 09:41:45;;;;;;;15.80;4.40;;;23.30;68.00;;;;;;4848408;29;20088;-73
2022/05/09 09:44:23;;;;;;;11.35;4.10;;;23.40;65.40;;;;;;4848864;29;20411;-73
2022/05/09 10:30:35;;;;;;;8.02;3.92;;;23.40;67.30;;;;;;4937361;29;20541;-73
2022/05/09 10:33:31;;;;;;;11.05;4.25;;;23.40;67.20;;;;;;4904592;29;20044;-65
2022/05/09 10:35:58;;;;;;;7.88;3.72;;;23.20;67.10;;;;;;4905367;29;20058;-64
2022/05/09 10:38:40;;;;;;;13.35;4.57;;;23.10;66.70;;;;;;4888770;29;20098;-64
2022/05/09 10:41:13;;;;;;;9.43;4.03;;;23.10;66.90;;;;;;4888973;29;20067;-64
2022/05/09 10:43:45;;;;;;;11.20;4.07;;;23.00;66.80;;;;;;4905093;29;20545;-65
2022/05/09 10:46:11;;;;;;;11.63;4.40;;;23.30;64.60;;;;;;4889429;29;20062;-64
2022/05/09 10:49:06;;;;;;;10.57;3.95;;;23.30;66.90;;;;;;4888742;29;20086;-64
2022/05/09 10:51:47;;;;;;;9.43;3.97;;;23.40;63.00;;;;;;4903143;29;20063;-64
2022/05/09 10:54:24;;;;;;;9.57;3.85;;;23.40;66.80;;;;;;4921131;29;20047;-70
2022/05/09 10:57:02;;;;;;;12.35;3.70;;;23.40;66.90;;;;;;4895695;29;20545;-72
2022/05/09 10:59:30;;;;;;;9.73;4.18;;;23.30;67.10;;;;;;4918559;29;20051;-72
2022/05/09 11:02:23;;;;;;;9.15;3.63;;;23.50;67.30;;;;;;4922052;29;20110;-72
2022/05/09 11:04:49;;;;;;;;;;;23.40;63.20;;;;;;4901226;29;20134;-71
2022/05/09 11:08:03;;;;;;;12.13;3.60;;;23.70;67.50;;;;;;4909149;29;19974;-73
2022/05/09 11:10:39;;;;;;;10.25;3.40;;;23.60;67.20;;;;;;4862713;29;20056;-72
2022/05/09 11:13:26;;;;;;;13.43;3.53;;;23.60;67.00;;;;;;4862860;29;20055;-71
2022/05/09 11:16:18;;;;;;;7.75;3.20;;;23.70;63.10;;;;;;4879659;29;20056;-73
2022/05/09 11:18:47;;;;;;;7.35;3.30;;;23.60;62.10;;;;;;4881105;29;20045;-71
2022/05/09 11:21:25;;;;;;;9.43;2.72;;;23.70;64.30;;;;;;4881149;29;20057;-73
2022/05/09 11:24:11;;;;;;;6.57;2.85;;;23.60;66.70;;;;;;4881226;29;20105;-72
2022/05/09 11:26:41;;;;;;;9.50;3.05;;;23.70;66.60;;;;;;4892044;29;20396;-70
2022/05/09 11:29:29;;;;;;;9.18;2.78;;;23.60;66.30;;;;;;4878518;29;20542;-72
2022/05/09 11:32:07;;;;;;;7.22;3.00;;;23.60;66.40;;;;;;4880385;29;20092;-72
2022/05/09 11:35:09;;;;;;;7.30;2.65;;;23.90;66.30;;;;;;4881161;29;20052;-71
2022/05/09 11:37:42;;;;;;;10.57;2.65;;;23.70;62.30;;;;;;4869229;29;20049;-72
2022/05/09 11:40:28;;;;;;;8.00;2.65;;;24.00;66.50;;;;;;4847936;29;20173;-73
2022/05/09 11:45:49;;;;;;;11.13;2.95;;;23.90;66.60;;;;;;4896350;29;20060;-64
2022/05/09 11:48:42;;;;;;;9.77;2.75;;;23.70;62.60;;;;;;4903826;29;20059;-64
2022/05/09 11:51:12;;;;;;;8.85;2.30;;;24.00;67.10;;;;;;4921229;29;20055;-65
2022/05/09 11:53:42;;;;;;;7.97;2.53;;;23.60;66.70;;;;;;4919606;29;20103;-64
2022/05/09 11:56:08;;;;;;;7.88;3.05;;;23.80;64.20;;;;;;4906964;29;20043;-64
2022/05/09 11:58:38;;;;;;;9.25;2.75;;;23.90;67.20;;;;;;4937997;29;20555;-65
2022/05/09 12:01:05;;;;;;;7.82;2.50;;;24.00;67.30;;;;;;4903261;29;20055;-65
2022/05/09 12:03:40;;;;;;;10.32;2.78;;;23.80;67.10;;;;;;4899224;29;20402;-66
2022/05/09 12:06:06;;;;;;;6.30;2.67;;;24.00;67.50;;;;;;4922739;29;20103;-66
2022/05/09 12:08:41;;;;;;;10.90;2.92;;;24.00;67.30;;;;;;4904601;29;20051;-66
2022/05/09 12:11:24;;;;;;;12.38;2.88;;;23.70;67.20;;;;;;4933093;29;20087;-66
2022/05/09 12:13:51;;;;;;;8.27;2.53;;;23.70;67.40;;;;;;4937258;29;20051;-66
2022/05/09 12:16:39;;;;;;;7.65;2.70;;;23.60;67.20;;;;;;4926211;29;20059;-67
2022/05/09 12:19:13;;;;;;;6.05;2.28;;;24.00;63.60;;;;;;4941677;29;20098;-66
2022/05/09 12:21:41;;;;;;;7.20;2.42;;;24.00;65.00;;;;;;4920018;29;20114;-67
2022/05/09 12:24:14;;;;;;;7.70;2.75;;;23.90;64.30;;;;;;4940461;29;20450;-66
2022/05/09 12:26:43;;;;;;;9.60;2.72;;;24.10;67.40;;;;;;4939809;29;20054;-66
2022/05/09 12:29:12;;;;;;;8.38;2.67;;;24.10;67.10;;;;;;4939263;29;20561;-66
2022/05/09 12:31:48;;;;;;;8.25;2.55;;;24.00;67.20;;;;;;4939546;29;20569;-67
2022/05/09 12:34:15;;;;;;;8.40;2.53;;;24.10;64.10;;;;;;4907745;29;20047;-66
2022/05/09 12:36:41;;;;;;;7.53;2.28;;;24.10;67.10;;;;;;4922455;29;20393;-66
2022/05/09 12:39:09;;;;;;;7.43;2.50;;;24.00;64.00;;;;;;4907578;29;20056;-72
2022/05/09 12:41:45;;;;;;;6.80;2.30;;;23.80;67.10;;;;;;4923733;29;20071;-73
2022/05/09 12:44:18;;;;;;;6.43;2.58;;;24.00;67.40;;;;;;4876099;29;20047;-70
2022/05/09 12:46:52;;;;;;;6.85;2.65;;;24.10;64.30;;;;;;4891603;29;20131;-72
2022/05/09 12:49:25;;;;;;;8.43;2.13;;;24.20;67.60;;;;;;4907328;29;20059;-73
2022/05/09 12:51:51;;;;;;;;;;;24.00;63.40;;;;;;4907337;29;20079;-67
2022/05/09 12:54:22;;;;;;;8.23;2.30;;;24.10;67.70;;;;;;4947896;29;20007;-73
2022/05/09 12:56:51;;;;;;;7.07;2.25;;;24.00;64.50;;;;;;4934510;29;20086;-74
2022/05/09 12:59:18;;;;;;;6.90;2.50;;;23.90;67.80;;;;;;4921425;29;20142;-74
2022/05/09 13:01:50;;;;;;;6.20;2.20;;;24.00;67.70;;;;;;4905857;29;20056;-74
2022/05/09 13:04:25;;;;;;;6.95;2.25;;;23.90;63.10;;;;;;4954136;29;20094;-72
2022/05/09 13:06:56;;;;;;;11.32;3.20;;;23.90;65.50;;;;;;4935220;29;20047;-66
2022/05/09 13:09:28;;;;;;;13.88;2.95;;;24.00;65.30;;;;;;4934284;29;20052;-74
2022/05/09 13:11:56;;;;;;;20.90;3.28;;;24.00;67.60;;;;;;4902993;28;20043;-75
2022/05/09 13:14:32;;;;;;;9.00;2.70;;;24.20;67.70;;;;;;4898027;29;20051;-66
2022/05/09 13:17:03;;;;;;;11.48;2.85;;;24.40;64.40;;;;;;4917816;29;20066;-67
2022/05/09 13:19:30;;;;;;;7.75;2.33;;;23.90;67.40;;;;;;4921755;29;20110;-65
2022/05/09 13:21:56;;;;;;;10.85;2.75;;;24.10;64.70;;;;;;4896616;29;20059;-66
2022/05/09 13:24:25;;;;;;;8.30;2.30;;;24.20;67.10;;;;;;4884366;29;20050;-66
2022/05/09 13:26:52;;;;;;;9.52;3.00;;;24.10;63.50;;;;;;4924436;29;20051;-75
2022/05/09 13:29:29;;;;;;;9.55;2.70;;;24.20;66.80;;;;;;4916309;29;20039;-75
2022/05/09 13:31:56;;;;;;;9.93;3.08;;;23.90;62.70;;;;;;4919927;29;20118;-75
2022/05/09 13:34:32;;;;;;;6.78;2.72;;;23.80;66.70;;;;;;4931224;29;20051;-75
2022/05/09 13:37:03;;;;;;;10.02;3.10;;;24.00;66.80;;;;;;4905626;29;20055;-75
2022/05/09 13:39:30;;;;;;;9.57;2.35;;;24.20;66.70;;;;;;4909540;29;20070;-74
2022/05/09 13:41:59;;;;;;;11.38;3.08;;;24.00;64.00;;;;;;4919641;29;20058;-66
2022/05/09 13:44:26;;;;;;;8.73;2.65;;;;;;;;;;4909175;29;20051;-66
2022/05/09 13:46:52;;;;;;;6.53;2.33;;;24.10;67.00;;;;;;4920019;29;20556;-66
2022/05/09 13:49:19;;;;;;;7.60;2.80;;;24.00;63.80;;;;;;4919330;29;20058;-66
2022/05/09 13:52:12;;;;;;;7.60;3.20;;;23.90;66.10;;;;;;4929650;29;20456;-66
2022/05/09 13:54:45;;;;;;;;;;;24.00;63.70;;;;;;4917756;29;20101;-66
2022/05/09 13:57:21;;;;;;;7.20;2.70;;;23.90;66.40;;;;;;4907653;29;19923;-66
2022/05/09 13:59:53;;;;;;;9.18;3.13;;;24.00;66.60;;;;;;4936663;29;20109;-66
2022/05/09 14:02:19;;;;;;;7.75;3.13;;;23.60;66.20;;;;;;4915482;29;20055;-66
2022/05/09 14:04:46;;;;;;;12.70;3.30;;;23.90;66.50;;;;;;4901934;29;20044;-66
2022/05/09 14:10:07;;;;;;;12.13;3.67;;;24.00;66.60;;;;;;4938524;29;20062;-66
2022/05/09 14:12:33;;;;;;;9.13;2.35;;;24.20;66.80;;;;;;4922297;29;20048;-66